sensor_id;sensor_type;location;lat;lon;timestamp;P1;durP1;ratioP1;P2;durP2;ratioP2
3311;SDS011;1668;49.648;8.570;2022-08-03T00:00:57;3.00;;;2.03;;
3311;SDS011;1668;49.648;8.570;2022-08-03T00:03:24;5.33;;;2.27;;
3311;SDS011;1668;49.648;8.570;2022-08-03T00:05:51;3.53;;;2.27;;
3311;SDS011;1668;49.648;8.570;2022-08-03T00:08:19;3.37;;;2.00;;
3311;SDS011;1668;49.648;8.570;2022-08-03T00:10:46;3.00;;;2.17;;
3311;SDS011;1668;49.648;8.570;2022-08-03T00:13:13;2.50;;;2.27;;
3311;SDS011;1668;49.648;8.570;2022-08-03T00:15:40;3.60;;;2.20;;
3311;SDS011;1668;49.648;8.570;2022-08-03T00:18:08;5.13;;;2.50;;
3311;SDS011;1668;49.648;8.570;2022-08-03T00:20:35;3.30;;;2.43;;
3311;SDS011;1668;49.648;8.570;2022-08-03T00:23:03;5.43;;;2.90;;
3311;SDS011;1668;49.648;8.570;2022-08-03T00:25:32;3.37;;;2.60;;
3311;SDS011;1668;49.648;8.570;2022-08-03T00:27:59;5.07;;;2.40;;
3311;SDS011;1668;49.648;8.570;2022-08-03T00:30:26;12.20;;;2.60;;
3311;SDS011;1668;49.648;8.570;2022-08-03T00:32:53;2.80;;;2.50;;
3311;SDS011;1668;49.648;8.570;2022-08-03T00:35:20;3.80;;;2.40;;
3311;SDS011;1668;49.648;8.570;2022-08-03T00:37:48;3.30;;;2.47;;
3311;SDS011;1668;49.648;8.570;2022-08-03T00:40:15;2.90;;;2.20;;
3311;SDS011;1668;49.648;8.570;2022-08-03T00:42:49;4.50;;;2.80;;
3311;SDS011;1668;49.648;8.570;2022-08-03T00:45:18;8.40;;;2.70;;
3311;SDS011;1668;49.648;8.570;2022-08-03T00:47:46;7.53;;;2.40;;
3311;SDS011;1668;49.648;8.570;2022-08-03T00:50:13;3.07;;;2.40;;
3311;SDS011;1668;49.648;8.570;2022-08-03T00:52:41;2.90;;;2.40;;
3311;SDS011;1668;49.648;8.570;2022-08-03T00:55:08;2.60;;;2.40;;
3311;SDS011;1668;49.648;8.570;2022-08-03T00:57:36;3.87;;;2.43;;
3311;SDS011;1668;49.648;8.570;2022-08-03T01:00:06;3.57;;;2.53;;
3311;SDS011;1668;49.648;8.570;2022-08-03T01:02:36;3.20;;;2.40;;
3311;SDS011;1668;49.648;8.570;2022-08-03T01:05:04;3.73;;;2.50;;
3311;SDS011;1668;49.648;8.570;2022-08-03T01:07:35;2.47;;;2.17;;
3311;SDS011;1668;49.648;8.570;2022-08-03T01:10:10;2.90;;;2.40;;
3311;SDS011;1668;49.648;8.570;2022-08-03T01:12:43;3.90;;;2.43;;
3311;SDS011;1668;49.648;8.570;2022-08-03T01:15:23;2.73;;;2.30;;
3311;SDS011;1668;49.648;8.570;2022-08-03T01:17:54;7.17;;;2.80;;
3311;SDS011;1668;49.648;8.570;2022-08-03T01:20:26;4.33;;;2.50;;
3311;SDS011;1668;49.648;8.570;2022-08-03T01:26:11;4.60;;;2.40;;
3311;SDS011;1668;49.648;8.570;2022-08-03T01:28:57;2.43;;;2.10;;
3311;SDS011;1668;49.648;8.570;2022-08-03T01:31:33;2.80;;;2.33;;
3311;SDS011;1668;49.648;8.570;2022-08-03T01:34:06;4.07;;;2.63;;
3311;SDS011;1668;49.648;8.570;2022-08-03T01:36:38;2.70;;;2.13;;
3311;SDS011;1668;49.648;8.570;2022-08-03T01:39:12;3.10;;;2.30;;
3311;SDS011;1668;49.648;8.570;2022-08-03T01:41:43;3.43;;;2.20;;
3311;SDS011;1668;49.648;8.570;2022-08-03T01:44:14;3.77;;;2.23;;
3311;SDS011;1668;49.648;8.570;2022-08-03T01:46:43;2.83;;;2.20;;
3311;SDS011;1668;49.648;8.570;2022-08-03T01:49:14;4.50;;;2.50;;
3311;SDS011;1668;49.648;8.570;2022-08-03T01:51:42;3.63;;;2.60;;
3311;SDS011;1668;49.648;8.570;2022-08-03T01:54:10;5.47;;;2.50;;
3311;SDS011;1668;49.648;8.570;2022-08-03T01:56:40;3.90;;;2.70;;
3311;SDS011;1668;49.648;8.570;2022-08-03T01:59:08;6.23;;;2.67;;
3311;SDS011;1668;49.648;8.570;2022-08-03T02:01:37;5.90;;;2.63;;
3311;SDS011;1668;49.648;8.570;2022-08-03T02:04:07;5.50;;;2.70;;
3311;SDS011;1668;49.648;8.570;2022-08-03T02:06:36;5.90;;;2.50;;
3311;SDS011;1668;49.648;8.570;2022-08-03T02:09:05;3.57;;;2.90;;
3311;SDS011;1668;49.648;8.570;2022-08-03T02:11:33;3.83;;;2.50;;
3311;SDS011;1668;49.648;8.570;2022-08-03T02:14:02;3.17;;;2.60;;
3311;SDS011;1668;49.648;8.570;2022-08-03T02:16:31;3.33;;;2.30;;
3311;SDS011;1668;49.648;8.570;2022-08-03T02:19:00;4.70;;;2.60;;
3311;SDS011;1668;49.648;8.570;2022-08-03T02:21:32;3.70;;;2.33;;
3311;SDS011;1668;49.648;8.570;2022-08-03T02:24:02;3.33;;;2.60;;
3311;SDS011;1668;49.648;8.570;2022-08-03T02:26:30;4.83;;;2.43;;
3311;SDS011;1668;49.648;8.570;2022-08-03T02:28:58;3.93;;;2.70;;
3311;SDS011;1668;49.648;8.570;2022-08-03T02:31:28;3.30;;;2.50;;
3311;SDS011;1668;49.648;8.570;2022-08-03T02:34:00;3.30;;;2.40;;
3311;SDS011;1668;49.648;8.570;2022-08-03T02:36:29;5.40;;;2.40;;
3311;SDS011;1668;49.648;8.570;2022-08-03T02:39:02;3.57;;;2.60;;
3311;SDS011;1668;49.648;8.570;2022-08-03T02:41:31;4.87;;;2.80;;
3311;SDS011;1668;49.648;8.570;2022-08-03T02:44:01;3.03;;;2.67;;
3311;SDS011;1668;49.648;8.570;2022-08-03T02:46:35;10.37;;;2.93;;
3311;SDS011;1668;49.648;8.570;2022-08-03T02:49:05;4.93;;;2.80;;
3311;SDS011;1668;49.648;8.570;2022-08-03T02:51:34;4.63;;;2.70;;
3311;SDS011;1668;49.648;8.570;2022-08-03T02:54:04;6.00;;;3.03;;
3311;SDS011;1668;49.648;8.570;2022-08-03T02:56:33;6.43;;;2.70;;
3311;SDS011;1668;49.648;8.570;2022-08-03T02:59:02;3.77;;;2.53;;
3311;SDS011;1668;49.648;8.570;2022-08-03T03:01:31;5.20;;;2.60;;
3311;SDS011;1668;49.648;8.570;2022-08-03T03:03:58;7.50;;;2.47;;
3311;SDS011;1668;49.648;8.570;2022-08-03T03:06:26;6.60;;;2.67;;
3311;SDS011;1668;49.648;8.570;2022-08-03T03:08:56;3.00;;;2.40;;
3311;SDS011;1668;49.648;8.570;2022-08-03T03:11:24;4.40;;;3.17;;
3311;SDS011;1668;49.648;8.570;2022-08-03T03:13:52;4.13;;;2.67;;
3311;SDS011;1668;49.648;8.570;2022-08-03T03:16:20;3.53;;;2.60;;
3311;SDS011;1668;49.648;8.570;2022-08-03T03:18:48;4.03;;;3.27;;
3311;SDS011;1668;49.648;8.570;2022-08-03T03:21:16;8.23;;;2.63;;
3311;SDS011;1668;49.648;8.570;2022-08-03T03:23:46;3.83;;;2.77;;
3311;SDS011;1668;49.648;8.570;2022-08-03T03:26:15;5.03;;;2.77;;
3311;SDS011;1668;49.648;8.570;2022-08-03T03:28:42;5.23;;;3.07;;
3311;SDS011;1668;49.648;8.570;2022-08-03T03:31:10;3.53;;;2.93;;
3311;SDS011;1668;49.648;8.570;2022-08-03T03:33:37;6.13;;;3.13;;
3311;SDS011;1668;49.648;8.570;2022-08-03T03:36:04;3.47;;;3.10;;
3311;SDS011;1668;49.648;8.570;2022-08-03T03:38:32;5.43;;;3.37;;
3311;SDS011;1668;49.648;8.570;2022-08-03T03:41:00;4.30;;;2.77;;
3311;SDS011;1668;49.648;8.570;2022-08-03T03:43:28;5.53;;;2.83;;
3311;SDS011;1668;49.648;8.570;2022-08-03T03:45:55;3.60;;;2.87;;
3311;SDS011;1668;49.648;8.570;2022-08-03T03:48:23;4.80;;;2.90;;
3311;SDS011;1668;49.648;8.570;2022-08-03T03:50:51;5.73;;;2.93;;
3311;SDS011;1668;49.648;8.570;2022-08-03T03:53:18;6.80;;;2.83;;
3311;SDS011;1668;49.648;8.570;2022-08-03T03:55:45;7.70;;;3.03;;
3311;SDS011;1668;49.648;8.570;2022-08-03T03:58:12;3.50;;;3.10;;
3311;SDS011;1668;49.648;8.570;2022-08-03T04:00:41;5.40;;;2.83;;
3311;SDS011;1668;49.648;8.570;2022-08-03T04:03:09;4.40;;;2.73;;
3311;SDS011;1668;49.648;8.570;2022-08-03T04:05:36;4.00;;;3.00;;
3311;SDS011;1668;49.648;8.570;2022-08-03T04:08:20;3.90;;;2.90;;
3311;SDS011;1668;49.648;8.570;2022-08-03T04:11:06;4.10;;;2.90;;
3311;SDS011;1668;49.648;8.570;2022-08-03T04:13:39;3.97;;;2.30;;
3311;SDS011;1668;49.648;8.570;2022-08-03T04:16:12;4.50;;;2.83;;
3311;SDS011;1668;49.648;8.570;2022-08-03T04:18:41;5.67;;;3.00;;
3311;SDS011;1668;49.648;8.570;2022-08-03T04:21:13;7.23;;;3.00;;
3311;SDS011;1668;49.648;8.570;2022-08-03T04:23:43;3.40;;;2.63;;
3311;SDS011;1668;49.648;8.570;2022-08-03T04:26:14;4.00;;;3.07;;
3311;SDS011;1668;49.648;8.570;2022-08-03T04:28:43;6.10;;;2.37;;
3311;SDS011;1668;49.648;8.570;2022-08-03T04:31:13;6.43;;;3.33;;
3311;SDS011;1668;49.648;8.570;2022-08-03T04:33:42;4.67;;;3.50;;
3311;SDS011;1668;49.648;8.570;2022-08-03T04:36:16;4.63;;;3.00;;
3311;SDS011;1668;49.648;8.570;2022-08-03T04:38:52;3.40;;;2.60;;
3311;SDS011;1668;49.648;8.570;2022-08-03T04:41:21;4.20;;;3.27;;
3311;SDS011;1668;49.648;8.570;2022-08-03T04:43:53;2.97;;;2.43;;
3311;SDS011;1668;49.648;8.570;2022-08-03T04:46:22;3.27;;;2.67;;
3311;SDS011;1668;49.648;8.570;2022-08-03T04:48:52;4.60;;;3.27;;
3311;SDS011;1668;49.648;8.570;2022-08-03T04:51:20;5.03;;;3.27;;
3311;SDS011;1668;49.648;8.570;2022-08-03T04:53:47;3.50;;;2.90;;
3311;SDS011;1668;49.648;8.570;2022-08-03T04:56:14;3.40;;;2.60;;
3311;SDS011;1668;49.648;8.570;2022-08-03T04:58:41;5.30;;;3.20;;
3311;SDS011;1668;49.648;8.570;2022-08-03T05:01:08;4.20;;;3.27;;
3311;SDS011;1668;49.648;8.570;2022-08-03T05:03:37;3.73;;;2.37;;
3311;SDS011;1668;49.648;8.570;2022-08-03T05:06:04;3.60;;;2.70;;
3311;SDS011;1668;49.648;8.570;2022-08-03T05:08:31;3.60;;;2.67;;
3311;SDS011;1668;49.648;8.570;2022-08-03T05:10:58;5.17;;;3.30;;
3311;SDS011;1668;49.648;8.570;2022-08-03T05:13:25;4.43;;;2.80;;
3311;SDS011;1668;49.648;8.570;2022-08-03T05:15:52;4.90;;;2.40;;
3311;SDS011;1668;49.648;8.570;2022-08-03T05:18:19;9.33;;;3.30;;
3311;SDS011;1668;49.648;8.570;2022-08-03T05:20:47;9.37;;;3.70;;
3311;SDS011;1668;49.648;8.570;2022-08-03T05:23:14;10.33;;;3.50;;
3311;SDS011;1668;49.648;8.570;2022-08-03T05:25:42;9.53;;;3.30;;
3311;SDS011;1668;49.648;8.570;2022-08-03T05:28:09;9.33;;;2.93;;
3311;SDS011;1668;49.648;8.570;2022-08-03T05:30:35;4.07;;;3.00;;
3311;SDS011;1668;49.648;8.570;2022-08-03T05:33:03;5.27;;;3.30;;
3311;SDS011;1668;49.648;8.570;2022-08-03T05:35:30;5.97;;;3.50;;
3311;SDS011;1668;49.648;8.570;2022-08-03T05:38:00;11.50;;;4.50;;
3311;SDS011;1668;49.648;8.570;2022-08-03T05:40:27;10.63;;;3.77;;
3311;SDS011;1668;49.648;8.570;2022-08-03T05:42:54;5.13;;;3.20;;
3311;SDS011;1668;49.648;8.570;2022-08-03T05:45:21;5.40;;;2.87;;
3311;SDS011;1668;49.648;8.570;2022-08-03T05:47:48;4.53;;;2.77;;
3311;SDS011;1668;49.648;8.570;2022-08-03T05:50:15;5.73;;;2.77;;
3311;SDS011;1668;49.648;8.570;2022-08-03T05:52:44;5.60;;;3.07;;
3311;SDS011;1668;49.648;8.570;2022-08-03T05:55:12;3.53;;;2.80;;
3311;SDS011;1668;49.648;8.570;2022-08-03T05:57:39;4.53;;;3.00;;
3311;SDS011;1668;49.648;8.570;2022-08-03T06:00:07;4.37;;;3.20;;
3311;SDS011;1668;49.648;8.570;2022-08-03T06:02:36;4.43;;;2.53;;
3311;SDS011;1668;49.648;8.570;2022-08-03T06:05:03;4.10;;;3.00;;
3311;SDS011;1668;49.648;8.570;2022-08-03T06:07:31;6.03;;;3.43;;
3311;SDS011;1668;49.648;8.570;2022-08-03T06:09:58;3.80;;;3.07;;
3311;SDS011;1668;49.648;8.570;2022-08-03T06:12:27;4.30;;;3.20;;
3311;SDS011;1668;49.648;8.570;2022-08-03T06:14:54;5.33;;;3.23;;
3311;SDS011;1668;49.648;8.570;2022-08-03T06:17:21;6.43;;;3.47;;
3311;SDS011;1668;49.648;8.570;2022-08-03T06:19:50;8.63;;;3.90;;
3311;SDS011;1668;49.648;8.570;2022-08-03T06:22:17;6.87;;;3.80;;
3311;SDS011;1668;49.648;8.570;2022-08-03T06:24:44;4.53;;;3.80;;
3311;SDS011;1668;49.648;8.570;2022-08-03T06:27:11;5.33;;;3.80;;
3311;SDS011;1668;49.648;8.570;2022-08-03T06:29:40;8.97;;;3.63;;
3311;SDS011;1668;49.648;8.570;2022-08-03T06:32:07;5.47;;;3.80;;
3311;SDS011;1668;49.648;8.570;2022-08-03T06:34:33;4.43;;;3.37;;
3311;SDS011;1668;49.648;8.570;2022-08-03T06:37:00;7.60;;;3.40;;
3311;SDS011;1668;49.648;8.570;2022-08-03T06:39:27;4.30;;;3.23;;
3311;SDS011;1668;49.648;8.570;2022-08-03T06:41:54;6.93;;;3.40;;
3311;SDS011;1668;49.648;8.570;2022-08-03T06:44:22;6.97;;;3.80;;
3311;SDS011;1668;49.648;8.570;2022-08-03T06:46:50;8.00;;;3.30;;
3311;SDS011;1668;49.648;8.570;2022-08-03T06:49:17;4.33;;;3.10;;
3311;SDS011;1668;49.648;8.570;2022-08-03T06:51:44;4.10;;;3.30;;
3311;SDS011;1668;49.648;8.570;2022-08-03T06:54:11;3.83;;;3.07;;
3311;SDS011;1668;49.648;8.570;2022-08-03T06:56:37;6.33;;;3.20;;
3311;SDS011;1668;49.648;8.570;2022-08-03T06:59:04;6.73;;;3.60;;
3311;SDS011;1668;49.648;8.570;2022-08-03T07:01:31;6.07;;;3.20;;
3311;SDS011;1668;49.648;8.570;2022-08-03T07:03:59;5.73;;;2.90;;
3311;SDS011;1668;49.648;8.570;2022-08-03T07:06:26;3.90;;;2.53;;
3311;SDS011;1668;49.648;8.570;2022-08-03T07:08:53;6.87;;;2.80;;
3311;SDS011;1668;49.648;8.570;2022-08-03T07:11:20;4.80;;;2.93;;
3311;SDS011;1668;49.648;8.570;2022-08-03T07:13:47;3.90;;;2.43;;
3311;SDS011;1668;49.648;8.570;2022-08-03T07:16:14;4.27;;;3.03;;
3311;SDS011;1668;49.648;8.570;2022-08-03T07:18:41;6.60;;;3.00;;
3311;SDS011;1668;49.648;8.570;2022-08-03T07:21:10;4.33;;;2.80;;
3311;SDS011;1668;49.648;8.570;2022-08-03T07:23:36;4.57;;;2.90;;
3311;SDS011;1668;49.648;8.570;2022-08-03T07:26:03;4.70;;;2.47;;
3311;SDS011;1668;49.648;8.570;2022-08-03T07:28:30;3.53;;;2.70;;
3311;SDS011;1668;49.648;8.570;2022-08-03T07:30:57;3.20;;;2.70;;
3311;SDS011;1668;49.648;8.570;2022-08-03T07:33:24;3.80;;;2.50;;
3311;SDS011;1668;49.648;8.570;2022-08-03T07:35:51;5.10;;;2.50;;
3311;SDS011;1668;49.648;8.570;2022-08-03T07:38:19;5.10;;;2.70;;
3311;SDS011;1668;49.648;8.570;2022-08-03T07:40:46;4.77;;;2.27;;
3311;SDS011;1668;49.648;8.570;2022-08-03T07:43:13;4.97;;;2.57;;
3311;SDS011;1668;49.648;8.570;2022-08-03T07:45:41;3.00;;;2.27;;
3311;SDS011;1668;49.648;8.570;2022-08-03T07:48:08;3.63;;;2.30;;
3311;SDS011;1668;49.648;8.570;2022-08-03T07:50:35;3.53;;;2.80;;
3311;SDS011;1668;49.648;8.570;2022-08-03T07:53:02;2.40;;;2.20;;
3311;SDS011;1668;49.648;8.570;2022-08-03T07:55:30;2.80;;;2.23;;
3311;SDS011;1668;49.648;8.570;2022-08-03T07:58:04;3.87;;;2.70;;
3311;SDS011;1668;49.648;8.570;2022-08-03T08:00:34;3.23;;;2.40;;
3311;SDS011;1668;49.648;8.570;2022-08-03T08:03:01;3.50;;;2.50;;
3311;SDS011;1668;49.648;8.570;2022-08-03T08:05:28;4.70;;;2.17;;
3311;SDS011;1668;49.648;8.570;2022-08-03T08:07:55;3.50;;;2.47;;
3311;SDS011;1668;49.648;8.570;2022-08-03T08:10:22;2.40;;;2.20;;
3311;SDS011;1668;49.648;8.570;2022-08-03T08:12:50;3.73;;;2.60;;
3311;SDS011;1668;49.648;8.570;2022-08-03T08:15:17;4.33;;;2.33;;
3311;SDS011;1668;49.648;8.570;2022-08-03T08:17:45;2.90;;;2.20;;
3311;SDS011;1668;49.648;8.570;2022-08-03T08:20:14;5.00;;;2.43;;
3311;SDS011;1668;49.648;8.570;2022-08-03T08:22:42;4.87;;;2.77;;
3311;SDS011;1668;49.648;8.570;2022-08-03T08:25:09;4.40;;;2.50;;
3311;SDS011;1668;49.648;8.570;2022-08-03T08:27:40;3.50;;;2.30;;
3311;SDS011;1668;49.648;8.570;2022-08-03T08:30:10;2.40;;;2.10;;
3311;SDS011;1668;49.648;8.570;2022-08-03T08:32:38;4.30;;;1.83;;
3311;SDS011;1668;49.648;8.570;2022-08-03T08:35:06;4.43;;;2.37;;
3311;SDS011;1668;49.648;8.570;2022-08-03T08:37:34;2.63;;;1.77;;
3311;SDS011;1668;49.648;8.570;2022-08-03T08:40:02;4.87;;;2.00;;
3311;SDS011;1668;49.648;8.570;2022-08-03T08:42:29;3.30;;;1.87;;
3311;SDS011;1668;49.648;8.570;2022-08-03T08:44:56;2.17;;;1.63;;
3311;SDS011;1668;49.648;8.570;2022-08-03T08:47:28;3.30;;;2.00;;
3311;SDS011;1668;49.648;8.570;2022-08-03T08:49:57;3.63;;;1.90;;
3311;SDS011;1668;49.648;8.570;2022-08-03T08:52:25;3.10;;;2.17;;
3311;SDS011;1668;49.648;8.570;2022-08-03T08:54:53;2.77;;;2.10;;
3311;SDS011;1668;49.648;8.570;2022-08-03T08:57:23;2.73;;;2.03;;
3311;SDS011;1668;49.648;8.570;2022-08-03T08:59:54;2.77;;;1.80;;
3311;SDS011;1668;49.648;8.570;2022-08-03T09:02:22;1.87;;;1.63;;
3311;SDS011;1668;49.648;8.570;2022-08-03T09:04:50;2.20;;;1.90;;
3311;SDS011;1668;49.648;8.570;2022-08-03T09:07:18;1.97;;;1.77;;
3311;SDS011;1668;49.648;8.570;2022-08-03T09:09:45;3.20;;;1.90;;
3311;SDS011;1668;49.648;8.570;2022-08-03T09:12:12;5.60;;;2.07;;
3311;SDS011;1668;49.648;8.570;2022-08-03T09:14:39;2.70;;;1.90;;
3311;SDS011;1668;49.648;8.570;2022-08-03T09:17:06;6.57;;;2.10;;
3311;SDS011;1668;49.648;8.570;2022-08-03T09:19:33;2.00;;;1.80;;
3311;SDS011;1668;49.648;8.570;2022-08-03T09:22:09;3.60;;;1.80;;
3311;SDS011;1668;49.648;8.570;2022-08-03T09:24:37;4.10;;;2.03;;
3311;SDS011;1668;49.648;8.570;2022-08-03T09:27:19;2.17;;;1.97;;
3311;SDS011;1668;49.648;8.570;2022-08-03T09:29:46;2.30;;;1.80;;
3311;SDS011;1668;49.648;8.570;2022-08-03T09:32:13;2.20;;;1.90;;
3311;SDS011;1668;49.648;8.570;2022-08-03T09:34:41;2.00;;;1.80;;
3311;SDS011;1668;49.648;8.570;2022-08-03T09:37:13;5.90;;;1.90;;
3311;SDS011;1668;49.648;8.570;2022-08-03T09:39:40;4.50;;;1.83;;
3311;SDS011;1668;49.648;8.570;2022-08-03T09:42:09;2.50;;;1.70;;
3311;SDS011;1668;49.648;8.570;2022-08-03T09:44:38;2.00;;;1.80;;
3311;SDS011;1668;49.648;8.570;2022-08-03T09:47:06;1.60;;;1.50;;
3311;SDS011;1668;49.648;8.570;2022-08-03T09:49:35;4.17;;;1.90;;
3311;SDS011;1668;49.648;8.570;2022-08-03T09:52:10;2.20;;;1.83;;
3311;SDS011;1668;49.648;8.570;2022-08-03T09:54:40;2.63;;;2.10;;
3311;SDS011;1668;49.648;8.570;2022-08-03T09:57:10;2.67;;;2.20;;
3311;SDS011;1668;49.648;8.570;2022-08-03T09:59:47;2.27;;;2.07;;
3311;SDS011;1668;49.648;8.570;2022-08-03T10:02:20;2.83;;;2.20;;
3311;SDS011;1668;49.648;8.570;2022-08-03T10:04:49;5.50;;;2.17;;
3311;SDS011;1668;49.648;8.570;2022-08-03T10:07:19;2.80;;;1.97;;
3311;SDS011;1668;49.648;8.570;2022-08-03T10:09:53;4.93;;;2.00;;
3311;SDS011;1668;49.648;8.570;2022-08-03T10:12:22;2.93;;;2.30;;
3311;SDS011;1668;49.648;8.570;2022-08-03T10:14:49;2.40;;;2.07;;
3311;SDS011;1668;49.648;8.570;2022-08-03T10:17:17;6.50;;;1.90;;
3311;SDS011;1668;49.648;8.570;2022-08-03T10:19:44;3.97;;;2.13;;
3311;SDS011;1668;49.648;8.570;2022-08-03T10:22:13;2.47;;;2.27;;
3311;SDS011;1668;49.648;8.570;2022-08-03T10:24:45;2.50;;;2.30;;
3311;SDS011;1668;49.648;8.570;2022-08-03T10:27:16;2.10;;;1.90;;
3311;SDS011;1668;49.648;8.570;2022-08-03T10:29:46;2.43;;;2.10;;
3311;SDS011;1668;49.648;8.570;2022-08-03T10:32:20;2.30;;;2.03;;
3311;SDS011;1668;49.648;8.570;2022-08-03T10:34:51;2.30;;;2.07;;
3311;SDS011;1668;49.648;8.570;2022-08-03T10:37:25;1.77;;;1.67;;
3311;SDS011;1668;49.648;8.570;2022-08-03T10:39:56;2.47;;;2.00;;
3311;SDS011;1668;49.648;8.570;2022-08-03T10:42:25;2.83;;;2.20;;
3311;SDS011;1668;49.648;8.570;2022-08-03T10:44:59;2.40;;;1.83;;
3311;SDS011;1668;49.648;8.570;2022-08-03T10:47:29;2.07;;;1.87;;
3311;SDS011;1668;49.648;8.570;2022-08-03T10:49:57;5.33;;;2.23;;
3311;SDS011;1668;49.648;8.570;2022-08-03T10:52:25;3.23;;;2.00;;
3311;SDS011;1668;49.648;8.570;2022-08-03T10:54:52;2.37;;;2.00;;
3311;SDS011;1668;49.648;8.570;2022-08-03T10:57:45;6.07;;;2.20;;
3311;SDS011;1668;49.648;8.570;2022-08-03T11:00:13;3.90;;;2.07;;
3311;SDS011;1668;49.648;8.570;2022-08-03T11:05:43;2.47;;;2.03;;
3311;SDS011;1668;49.648;8.570;2022-08-03T11:08:24;2.77;;;2.27;;
3311;SDS011;1668;49.648;8.570;2022-08-03T11:10:53;3.70;;;2.10;;
3311;SDS011;1668;49.648;8.570;2022-08-03T11:13:23;2.90;;;2.20;;
3311;SDS011;1668;49.648;8.570;2022-08-03T11:15:53;1.97;;;1.60;;
3311;SDS011;1668;49.648;8.570;2022-08-03T11:18:22;2.50;;;1.80;;
3311;SDS011;1668;49.648;8.570;2022-08-03T11:20:50;3.23;;;2.30;;
3311;SDS011;1668;49.648;8.570;2022-08-03T11:23:19;3.53;;;2.50;;
3311;SDS011;1668;49.648;8.570;2022-08-03T11:26:08;2.40;;;2.03;;
3311;SDS011;1668;49.648;8.570;2022-08-03T11:28:40;2.97;;;2.30;;
3311;SDS011;1668;49.648;8.570;2022-08-03T11:34:14;4.83;;;2.27;;
3311;SDS011;1668;49.648;8.570;2022-08-03T11:39:47;4.10;;;2.30;;
3311;SDS011;1668;49.648;8.570;2022-08-03T11:45:12;2.40;;;2.20;;
3311;SDS011;1668;49.648;8.570;2022-08-03T11:47:40;2.00;;;1.80;;
3311;SDS011;1668;49.648;8.570;2022-08-03T11:50:08;4.90;;;2.33;;
3311;SDS011;1668;49.648;8.570;2022-08-03T11:52:39;3.97;;;2.10;;
3311;SDS011;1668;49.648;8.570;2022-08-03T11:55:14;2.73;;;2.00;;
3311;SDS011;1668;49.648;8.570;2022-08-03T11:57:42;4.03;;;2.20;;
3311;SDS011;1668;49.648;8.570;2022-08-03T12:00:22;3.13;;;2.20;;
3311;SDS011;1668;49.648;8.570;2022-08-03T12:02:55;3.87;;;2.00;;
3311;SDS011;1668;49.648;8.570;2022-08-03T12:05:40;4.80;;;2.13;;
3311;SDS011;1668;49.648;8.570;2022-08-03T12:08:13;2.37;;;1.90;;
3311;SDS011;1668;49.648;8.570;2022-08-03T12:10:45;3.23;;;1.80;;
3311;SDS011;1668;49.648;8.570;2022-08-03T12:13:13;3.87;;;2.20;;
3311;SDS011;1668;49.648;8.570;2022-08-03T12:15:42;2.53;;;2.00;;
3311;SDS011;1668;49.648;8.570;2022-08-03T12:18:13;2.03;;;1.83;;
3311;SDS011;1668;49.648;8.570;2022-08-03T12:20:42;2.13;;;1.80;;
3311;SDS011;1668;49.648;8.570;2022-08-03T12:23:11;8.37;;;1.90;;
3311;SDS011;1668;49.648;8.570;2022-08-03T12:25:39;2.27;;;1.87;;
3311;SDS011;1668;49.648;8.570;2022-08-03T12:28:11;2.10;;;1.90;;
3311;SDS011;1668;49.648;8.570;2022-08-03T12:30:46;3.03;;;1.93;;
3311;SDS011;1668;49.648;8.570;2022-08-03T12:33:15;4.13;;;2.10;;
3311;SDS011;1668;49.648;8.570;2022-08-03T12:36:00;2.67;;;1.90;;
3311;SDS011;1668;49.648;8.570;2022-08-03T12:38:30;2.20;;;1.70;;
3311;SDS011;1668;49.648;8.570;2022-08-03T12:41:02;2.03;;;1.83;;
3311;SDS011;1668;49.648;8.570;2022-08-03T12:43:30;2.00;;;1.80;;
3311;SDS011;1668;49.648;8.570;2022-08-03T12:46:09;3.37;;;1.90;;
3311;SDS011;1668;49.648;8.570;2022-08-03T12:51:27;3.33;;;1.87;;
3311;SDS011;1668;49.648;8.570;2022-08-03T12:53:56;2.57;;;1.90;;
3311;SDS011;1668;49.648;8.570;2022-08-03T12:56:23;2.63;;;2.07;;
3311;SDS011;1668;49.648;8.570;2022-08-03T12:58:51;5.77;;;1.90;;
3311;SDS011;1668;49.648;8.570;2022-08-03T13:01:19;4.50;;;2.17;;
3311;SDS011;1668;49.648;8.570;2022-08-03T13:03:48;3.07;;;1.77;;
3311;SDS011;1668;49.648;8.570;2022-08-03T13:06:17;1.87;;;1.70;;
3311;SDS011;1668;49.648;8.570;2022-08-03T13:08:45;3.73;;;2.03;;
3311;SDS011;1668;49.648;8.570;2022-08-03T13:11:20;2.70;;;1.93;;
3311;SDS011;1668;49.648;8.570;2022-08-03T13:13:48;5.27;;;2.20;;
3311;SDS011;1668;49.648;8.570;2022-08-03T13:16:15;3.80;;;2.00;;
3311;SDS011;1668;49.648;8.570;2022-08-03T13:18:43;6.10;;;2.40;;
3311;SDS011;1668;49.648;8.570;2022-08-03T13:21:12;6.40;;;2.57;;
3311;SDS011;1668;49.648;8.570;2022-08-03T13:23:39;3.10;;;2.63;;
3311;SDS011;1668;49.648;8.570;2022-08-03T13:26:07;2.50;;;2.30;;
3311;SDS011;1668;49.648;8.570;2022-08-03T13:28:34;2.90;;;2.10;;
3311;SDS011;1668;49.648;8.570;2022-08-03T13:31:01;3.90;;;2.40;;
3311;SDS011;1668;49.648;8.570;2022-08-03T13:33:28;2.97;;;2.20;;
3311;SDS011;1668;49.648;8.570;2022-08-03T13:35:56;5.03;;;2.93;;
3311;SDS011;1668;49.648;8.570;2022-08-03T13:38:23;9.20;;;2.40;;
3311;SDS011;1668;49.648;8.570;2022-08-03T13:40:50;4.63;;;2.10;;
3311;SDS011;1668;49.648;8.570;2022-08-03T13:43:18;2.90;;;2.50;;
3311;SDS011;1668;49.648;8.570;2022-08-03T13:45:45;4.03;;;2.20;;
3311;SDS011;1668;49.648;8.570;2022-08-03T13:48:12;2.63;;;2.40;;
3311;SDS011;1668;49.648;8.570;2022-08-03T13:50:39;5.30;;;2.30;;
3311;SDS011;1668;49.648;8.570;2022-08-03T13:53:07;4.10;;;2.57;;
3311;SDS011;1668;49.648;8.570;2022-08-03T13:55:34;9.23;;;1.83;;
3311;SDS011;1668;49.648;8.570;2022-08-03T13:58:01;6.33;;;2.10;;
3311;SDS011;1668;49.648;8.570;2022-08-03T14:00:28;2.67;;;2.17;;
3311;SDS011;1668;49.648;8.570;2022-08-03T14:02:55;4.00;;;2.10;;
3311;SDS011;1668;49.648;8.570;2022-08-03T14:05:23;2.33;;;1.97;;
3311;SDS011;1668;49.648;8.570;2022-08-03T14:07:50;2.60;;;2.03;;
3311;SDS011;1668;49.648;8.570;2022-08-03T14:10:18;3.10;;;2.50;;
3311;SDS011;1668;49.648;8.570;2022-08-03T14:12:45;6.70;;;2.10;;
3311;SDS011;1668;49.648;8.570;2022-08-03T14:15:12;4.90;;;2.10;;
3311;SDS011;1668;49.648;8.570;2022-08-03T14:17:39;2.50;;;2.30;;
3311;SDS011;1668;49.648;8.570;2022-08-03T14:20:06;3.97;;;2.30;;
3311;SDS011;1668;49.648;8.570;2022-08-03T14:22:34;5.60;;;2.07;;
3311;SDS011;1668;49.648;8.570;2022-08-03T14:25:01;3.10;;;1.50;;
3311;SDS011;1668;49.648;8.570;2022-08-03T14:27:30;3.33;;;1.93;;
3311;SDS011;1668;49.648;8.570;2022-08-03T14:29:56;1.70;;;1.60;;
3311;SDS011;1668;49.648;8.570;2022-08-03T14:32:25;4.57;;;1.90;;
3311;SDS011;1668;49.648;8.570;2022-08-03T14:34:52;3.80;;;2.03;;
3311;SDS011;1668;49.648;8.570;2022-08-03T14:37:19;2.87;;;1.90;;
3311;SDS011;1668;49.648;8.570;2022-08-03T14:39:46;3.00;;;1.80;;
3311;SDS011;1668;49.648;8.570;2022-08-03T14:42:14;3.27;;;1.63;;
3311;SDS011;1668;49.648;8.570;2022-08-03T14:44:42;2.80;;;2.17;;
3311;SDS011;1668;49.648;8.570;2022-08-03T14:47:09;2.37;;;1.70;;
3311;SDS011;1668;49.648;8.570;2022-08-03T14:49:36;4.90;;;1.83;;
3311;SDS011;1668;49.648;8.570;2022-08-03T14:52:03;2.30;;;1.67;;
3311;SDS011;1668;49.648;8.570;2022-08-03T14:54:30;1.80;;;1.70;;
3311;SDS011;1668;49.648;8.570;2022-08-03T14:56:57;2.20;;;1.70;;
3311;SDS011;1668;49.648;8.570;2022-08-03T14:59:24;4.53;;;1.90;;
3311;SDS011;1668;49.648;8.570;2022-08-03T15:01:53;2.07;;;1.87;;
3311;SDS011;1668;49.648;8.570;2022-08-03T15:04:20;2.43;;;1.80;;
3311;SDS011;1668;49.648;8.570;2022-08-03T15:06:47;2.20;;;1.47;;
3311;SDS011;1668;49.648;8.570;2022-08-03T15:09:14;1.60;;;1.50;;
3311;SDS011;1668;49.648;8.570;2022-08-03T15:11:41;2.70;;;1.97;;
3311;SDS011;1668;49.648;8.570;2022-08-03T15:14:08;2.10;;;1.60;;
3311;SDS011;1668;49.648;8.570;2022-08-03T15:16:36;4.20;;;1.87;;
3311;SDS011;1668;49.648;8.570;2022-08-03T15:19:04;1.73;;;1.40;;
3311;SDS011;1668;49.648;8.570;2022-08-03T15:21:31;1.40;;;1.30;;
3311;SDS011;1668;49.648;8.570;2022-08-03T15:23:58;6.50;;;1.40;;
3311;SDS011;1668;49.648;8.570;2022-08-03T15:26:25;1.50;;;1.40;;
3311;SDS011;1668;49.648;8.570;2022-08-03T15:28:52;2.23;;;1.50;;
3311;SDS011;1668;49.648;8.570;2022-08-03T15:31:20;2.50;;;1.17;;
3311;SDS011;1668;49.648;8.570;2022-08-03T15:33:47;2.07;;;1.30;;
3311;SDS011;1668;49.648;8.570;2022-08-03T15:36:16;2.23;;;1.23;;
3311;SDS011;1668;49.648;8.570;2022-08-03T15:38:44;1.30;;;1.20;;
3311;SDS011;1668;49.648;8.570;2022-08-03T15:41:11;1.53;;;1.23;;
3311;SDS011;1668;49.648;8.570;2022-08-03T15:43:39;1.63;;;1.30;;